createdAt,value
2022-10-19T00:01:50.538Z,39.90
2022-10-19T00:04:17.804Z,34.40
2022-10-19T00:06:45.737Z,36.42
2022-10-19T00:09:17.587Z,37.88
2022-10-19T00:11:47.332Z,43.17
2022-10-19T00:14:18.308Z,41.47
2022-10-19T00:16:47.527Z,46.55
2022-10-19T00:19:22.494Z,43.40
2022-10-19T00:24:18.112Z,29.95
2022-10-19T00:26:45.827Z,33.60
2022-10-19T00:29:14.759Z,31.15
2022-10-19T00:31:42.140Z,37.03
2022-10-19T00:34:09.767Z,38.90
2022-10-19T00:36:39.826Z,39.03
2022-10-19T00:39:10.854Z,37.95
2022-10-19T00:41:38.661Z,37.33
2022-10-19T00:44:10.102Z,39.45
2022-10-19T00:46:40.239Z,34.40
2022-10-19T00:49:13.930Z,38.67
2022-10-19T00:51:45.052Z,36.58
2022-10-19T00:54:12.547Z,37.00
2022-10-19T00:56:42.495Z,37.38
2022-10-19T00:59:10.501Z,37.05
2022-10-19T01:01:38.699Z,33.13
2022-10-19T01:04:06.006Z,38.15
2022-10-19T01:06:34.051Z,36.38
2022-10-19T01:09:01.235Z,35.58
2022-10-19T01:11:32.725Z,38.22
2022-10-19T01:14:32.695Z,33.85
2022-10-19T01:17:11.362Z,36.63
2022-10-19T01:19:49.205Z,38.08
2022-10-19T01:22:28.549Z,35.50
2022-10-19T01:25:22.139Z,40.55
2022-10-19T01:28:13.744Z,38.95
2022-10-19T01:31:16.819Z,35.30
2022-10-19T01:34:03.963Z,35.90
2022-10-19T01:36:42.437Z,38.25
2022-10-19T01:39:28.386Z,34.05
2022-10-19T01:42:11.225Z,32.90
2022-10-19T01:44:46.806Z,34.45
2022-10-19T01:47:20.365Z,33.97
2022-10-19T01:49:52.045Z,32.35
2022-10-19T01:52:21.501Z,32.63
2022-10-19T01:54:52.202Z,32.67
2022-10-19T01:57:28.353Z,34.83
2022-10-19T01:59:57.603Z,33.90
2022-10-19T02:02:28.019Z,33.33
2022-10-19T02:04:57.017Z,33.03
2022-10-19T02:07:26.065Z,34.08
2022-10-19T02:09:53.179Z,32.28
2022-10-19T02:12:21.431Z,33.13
2022-10-19T02:14:53.842Z,35.70
2022-10-19T02:17:26.514Z,35.55
2022-10-19T02:19:54.806Z,34.83
2022-10-19T02:22:22.299Z,34.40
2022-10-19T02:24:49.533Z,39.28
2022-10-19T02:27:17.455Z,37.30
2022-10-19T02:29:44.876Z,38.58
2022-10-19T02:32:12.872Z,41.20
2022-10-19T02:34:40.626Z,39.63
2022-10-19T02:37:08.099Z,36.42
2022-10-19T02:39:35.332Z,35.28
2022-10-19T02:42:06.578Z,38.03
2022-10-19T02:44:43.282Z,37.97
2022-10-19T02:47:17.843Z,35.47
2022-10-19T02:52:13.982Z,35.95
2022-10-19T02:54:43.371Z,34.20
2022-10-19T02:57:24.368Z,39.95
2022-10-19T02:59:52.473Z,45.47
2022-10-19T03:02:21.242Z,47.05
2022-10-19T03:07:20.011Z,40.00
2022-10-19T03:09:47.235Z,38.63
2022-10-19T03:12:15.095Z,36.88
2022-10-19T03:14:42.750Z,41.75
2022-10-19T03:17:10.409Z,42.35
2022-10-19T03:19:37.947Z,43.92
2022-10-19T03:22:05.396Z,42.20
2022-10-19T03:24:33.222Z,44.47
2022-10-19T03:27:00.339Z,62.33
2022-10-19T03:29:27.732Z,45.35
2022-10-19T03:31:54.798Z,45.38
2022-10-19T03:34:21.894Z,48.70
2022-10-19T03:36:49.094Z,48.10
2022-10-19T03:39:17.120Z,53.10
2022-10-19T03:41:44.378Z,49.63
2022-10-19T03:44:11.557Z,67.05
2022-10-19T03:46:39.358Z,54.13
2022-10-19T03:49:07.023Z,58.35
2022-10-19T03:51:35.346Z,63.38
2022-10-19T03:54:05.828Z,54.22
2022-10-19T03:56:34.541Z,62.70
2022-10-19T03:59:04.203Z,55.88
2022-10-19T04:01:35.951Z,53.13
2022-10-19T04:04:06.135Z,60.42
2022-10-19T04:06:37.972Z,55.08
2022-10-19T04:09:07.426Z,54.00
2022-10-19T04:11:35.734Z,47.20
2022-10-19T04:14:03.059Z,51.58
2022-10-19T04:16:31.398Z,45.38
2022-10-19T04:18:59.202Z,52.15
2022-10-19T04:21:30.604Z,48.35
2022-10-19T04:24:01.407Z,47.08
2022-10-19T04:26:29.457Z,50.83
2022-10-19T04:28:59.112Z,52.08
2022-10-19T04:31:27.259Z,45.88
2022-10-19T04:33:54.733Z,45.95
2022-10-19T04:36:22.353Z,46.50
2022-10-19T04:38:49.501Z,44.33
2022-10-19T04:41:19.821Z,52.65
2022-10-19T04:43:48.031Z,55.42
2022-10-19T04:46:17.900Z,40.80
2022-10-19T04:48:46.355Z,43.97
2022-10-19T04:51:14.512Z,47.95
2022-10-19T04:53:42.944Z,49.53
2022-10-19T04:56:16.133Z,48.35
2022-10-19T04:58:43.816Z,47.15
2022-10-19T05:01:12.959Z,49.95
2022-10-19T05:03:40.657Z,70.53
2022-10-19T05:06:08.559Z,77.47
2022-10-19T05:08:37.012Z,73.93
2022-10-19T05:11:07.268Z,74.22
2022-10-19T05:13:35.185Z,63.42
2022-10-19T05:16:04.324Z,63.03
2022-10-19T05:18:31.849Z,55.35
2022-10-19T05:21:09.039Z,58.88
2022-10-19T05:23:36.174Z,57.90
2022-10-19T05:26:08.371Z,67.85
2022-10-19T05:28:36.734Z,54.15
2022-10-19T05:31:07.508Z,53.70
2022-10-19T05:33:35.065Z,62.70
2022-10-19T05:36:19.599Z,53.00
2022-10-19T05:38:50.473Z,58.95
2022-10-19T05:41:17.814Z,55.42
2022-10-19T05:43:46.240Z,44.40
2022-10-19T05:46:18.319Z,41.85
2022-10-19T05:48:46.495Z,45.67
2022-10-19T05:51:17.159Z,45.15
2022-10-19T05:53:44.435Z,41.33
2022-10-19T05:56:23.032Z,40.65
2022-10-19T05:58:50.319Z,37.33
2022-10-19T06:01:19.854Z,45.65
2022-10-19T06:03:48.076Z,39.40
2022-10-19T06:06:15.115Z,41.15
2022-10-19T06:08:42.463Z,39.47
2022-10-19T06:11:14.358Z,36.92
2022-10-19T06:13:43.069Z,40.55
2022-10-19T06:16:12.263Z,38.05
2022-10-19T06:18:40.385Z,33.78
2022-10-19T06:21:10.749Z,36.38
2022-10-19T06:23:38.373Z,33.67
2022-10-19T06:26:08.522Z,33.28
2022-10-19T06:28:36.910Z,32.72
2022-10-19T06:31:07.163Z,30.17
2022-10-19T06:33:36.390Z,26.33
2022-10-19T06:36:08.446Z,31.05
2022-10-19T06:38:35.706Z,26.15
2022-10-19T06:41:03.131Z,23.85
2022-10-19T06:43:30.280Z,24.77
2022-10-19T06:45:57.603Z,24.50
2022-10-19T06:48:24.947Z,24.83
2022-10-19T06:50:58.435Z,22.92
2022-10-19T06:53:25.998Z,21.17
2022-10-19T06:55:53.381Z,32.33
2022-10-19T06:58:20.475Z,24.15
2022-10-19T07:00:57.291Z,23.27
2022-10-19T07:03:25.783Z,21.17
2022-10-19T07:05:54.799Z,25.33
2022-10-19T07:08:22.389Z,19.40
2022-10-19T07:10:54.765Z,22.20
2022-10-19T07:13:22.716Z,21.65
2022-10-19T07:15:50.205Z,21.10
2022-10-19T07:18:17.535Z,21.27
2022-10-19T07:20:55.556Z,20.55
2022-10-19T07:23:22.903Z,19.08
2022-10-19T07:25:50.035Z,19.27
2022-10-19T07:28:17.192Z,24.42
2022-10-19T07:30:44.343Z,23.60
2022-10-19T07:33:11.625Z,19.65
2022-10-19T07:35:38.851Z,22.33
2022-10-19T07:38:05.929Z,21.15
2022-10-19T07:40:33.098Z,19.70
2022-10-19T07:43:00.181Z,20.23
2022-10-19T07:45:27.332Z,20.92
2022-10-19T07:47:54.439Z,20.05
2022-10-19T07:50:24.820Z,19.35
2022-10-19T07:52:52.828Z,22.95
2022-10-19T07:55:20.019Z,19.55
2022-10-19T07:57:48.719Z,17.77
2022-10-19T08:00:17.803Z,18.98
2022-10-19T08:03:18.958Z,22.15
2022-10-19T08:05:34.063Z,20.90
2022-10-19T08:08:01.345Z,22.85
2022-10-19T08:10:28.598Z,23.35
2022-10-19T08:12:55.741Z,19.98
2022-10-19T08:15:22.903Z,22.25
2022-10-19T08:17:50.068Z,23.70
2022-10-19T08:20:17.160Z,20.15
2022-10-19T08:22:45.395Z,17.92
2022-10-19T08:25:12.495Z,16.60
2022-10-19T08:27:39.593Z,17.02
2022-10-19T08:30:07.791Z,18.05
2022-10-19T08:32:35.116Z,17.23
2022-10-19T08:35:05.034Z,15.95
2022-10-19T08:37:44.124Z,13.50
2022-10-19T08:40:23.673Z,12.65
2022-10-19T08:43:10.677Z,14.73
2022-10-19T08:45:57.672Z,12.77
2022-10-19T08:48:36.857Z,19.08
2022-10-19T08:51:06.437Z,17.60
2022-10-19T08:53:46.165Z,11.60
2022-10-19T08:56:45.674Z,12.52
2022-10-19T08:59:12.564Z,15.85
2022-10-19T09:01:49.887Z,12.13
2022-10-19T09:04:17.010Z,11.18
2022-10-19T09:07:07.375Z,13.95
2022-10-19T09:09:41.095Z,10.43
2022-10-19T09:12:12.875Z,17.38
2022-10-19T09:15:01.009Z,13.00
2022-10-19T09:17:28.883Z,9.68
2022-10-19T09:19:56.827Z,11.50
2022-10-19T09:22:32.709Z,11.40
2022-10-19T09:25:10.086Z,8.90
2022-10-19T09:27:40.266Z,6.85
2022-10-19T09:30:19.441Z,10.00
2022-10-19T09:32:48.819Z,6.43
2022-10-19T09:35:37.563Z,6.70
2022-10-19T09:38:07.400Z,4.80
2022-10-19T09:40:35.666Z,4.47
2022-10-19T09:43:19.662Z,3.30
2022-10-19T09:45:46.766Z,2.95
2022-10-19T09:48:25.466Z,4.95
2022-10-19T09:50:57.890Z,5.03
2022-10-19T09:53:26.825Z,4.68
2022-10-19T09:56:18.527Z,4.28
2022-10-19T09:58:52.061Z,5.97
2022-10-19T10:01:43.257Z,7.60
2022-10-19T10:04:15.340Z,5.43
2022-10-19T10:06:44.740Z,5.78
2022-10-19T10:09:18.248Z,4.63
2022-10-19T10:11:49.689Z,10.30
2022-10-19T10:14:30.647Z,7.03
2022-10-19T10:17:03.909Z,12.00
2022-10-19T10:19:33.092Z,6.00
2022-10-19T10:22:00.592Z,5.28
2022-10-19T10:24:30.306Z,6.25
2022-10-19T10:27:00.317Z,4.97
2022-10-19T10:29:31.219Z,5.85
2022-10-19T10:32:05.111Z,7.53
2022-10-19T10:34:58.560Z,7.38
2022-10-19T10:37:45.464Z,4.30
2022-10-19T10:40:23.602Z,4.68
2022-10-19T10:42:53.606Z,4.90
2022-10-19T10:45:43.136Z,4.25
2022-10-19T10:48:19.311Z,4.30
2022-10-19T10:50:46.660Z,4.10
2022-10-19T10:53:34.715Z,4.50
2022-10-19T10:56:02.230Z,4.30
2022-10-19T10:58:31.895Z,8.18
2022-10-19T11:01:06.572Z,6.28
2022-10-19T11:03:37.647Z,5.47
2022-10-19T11:06:04.903Z,6.28
2022-10-19T11:08:57.028Z,5.80
2022-10-19T11:11:46.198Z,7.95
2022-10-19T11:14:33.540Z,5.45
2022-10-19T11:17:17.052Z,7.63
2022-10-19T11:19:45.371Z,6.40
2022-10-19T11:22:41.045Z,7.55
2022-10-19T11:25:12.555Z,5.82
2022-10-19T11:27:55.700Z,7.97
2022-10-19T11:30:25.085Z,8.65
2022-10-19T11:33:12.062Z,6.50
2022-10-19T11:36:00.136Z,6.78
2022-10-19T11:38:30.221Z,5.95
2022-10-19T11:41:26.973Z,8.52
2022-10-19T11:44:05.160Z,6.65
2022-10-19T11:46:42.943Z,8.88
2022-10-19T11:49:11.100Z,5.43
2022-10-19T11:51:44.012Z,6.88
2022-10-19T11:54:30.945Z,10.90
2022-10-19T11:57:06.347Z,8.20
2022-10-19T11:59:36.475Z,7.03
2022-10-19T12:02:19.607Z,8.45
2022-10-19T12:05:00.504Z,10.35
2022-10-19T12:08:00.216Z,8.60
2022-10-19T12:10:40.679Z,5.60
2022-10-19T12:13:15.026Z,7.80
2022-10-19T12:15:49.945Z,6.50
2022-10-19T12:18:35.461Z,4.82
2022-10-19T12:21:09.943Z,5.28
2022-10-19T12:23:39.965Z,7.47
2022-10-19T12:26:10.245Z,5.90
2022-10-19T12:28:40.835Z,7.05
2022-10-19T12:31:09.757Z,5.32
2022-10-19T12:33:36.865Z,8.68
2022-10-19T12:36:23.827Z,7.03
2022-10-19T12:39:00.239Z,6.28
2022-10-19T12:41:53.248Z,7.05
2022-10-19T12:44:35.924Z,4.85
2022-10-19T12:47:10.479Z,6.82
2022-10-19T12:49:43.589Z,4.70
2022-10-19T12:52:12.152Z,4.30
2022-10-19T12:54:42.147Z,5.88
2022-10-19T12:57:29.721Z,5.63
2022-10-19T13:00:01.624Z,5.78
2022-10-19T13:05:00.763Z,7.78
2022-10-19T13:07:31.253Z,4.60
2022-10-19T13:10:02.853Z,8.13
2022-10-19T13:12:43.749Z,4.90
2022-10-19T13:15:34.178Z,5.18
2022-10-19T13:18:12.115Z,9.32
2022-10-19T13:23:11.129Z,5.93
2022-10-19T13:25:39.404Z,4.97
2022-10-19T13:28:06.457Z,6.22
2022-10-19T13:30:38.279Z,4.43
2022-10-19T13:33:27.308Z,5.70
2022-10-19T13:36:02.685Z,8.98
2022-10-19T13:38:32.955Z,4.68
2022-10-19T13:41:05.096Z,7.32
2022-10-19T13:43:54.841Z,4.15
2022-10-19T13:46:30.244Z,5.53
2022-10-19T13:49:32.761Z,6.30
2022-10-19T13:52:23.344Z,4.35
2022-10-19T13:55:08.915Z,5.53
2022-10-19T13:57:57.010Z,4.95
2022-10-19T14:00:50.885Z,4.65
2022-10-19T14:03:26.535Z,5.38
2022-10-19T14:06:16.905Z,4.82
2022-10-19T14:09:14.232Z,5.78
2022-10-19T14:11:44.258Z,6.45
2022-10-19T14:14:11.385Z,5.05
2022-10-19T14:16:50.333Z,4.55
2022-10-19T14:19:26.947Z,7.25
2022-10-19T14:21:57.796Z,5.72
2022-10-19T14:24:36.029Z,6.20
2022-10-19T14:27:07.331Z,6.90
2022-10-19T14:29:45.157Z,5.85
2022-10-19T14:32:14.102Z,7.75
2022-10-19T14:34:45.187Z,5.57
2022-10-19T14:37:24.224Z,4.10
2022-10-19T14:40:32.062Z,4.07
2022-10-19T14:43:02.253Z,3.33
2022-10-19T14:45:32.473Z,5.30
2022-10-19T14:48:04.602Z,5.63
2022-10-19T14:50:42.078Z,4.07
2022-10-19T14:53:20.648Z,3.85
2022-10-19T14:55:50.294Z,6.25
2022-10-19T14:58:22.397Z,4.45
2022-10-19T15:00:51.498Z,5.13
2022-10-19T15:03:26.191Z,4.70
2022-10-19T15:06:00.736Z,7.35
2022-10-19T15:08:35.093Z,4.13
2022-10-19T15:11:02.531Z,7.22
2022-10-19T15:13:36.513Z,4.40
2022-10-19T15:16:03.751Z,3.35
2022-10-19T15:18:49.648Z,5.32
2022-10-19T15:21:22.136Z,5.18
2022-10-19T15:23:52.610Z,5.13
2022-10-19T15:26:29.328Z,8.23
2022-10-19T15:29:10.172Z,6.13
2022-10-19T15:31:37.944Z,5.43
2022-10-19T15:34:07.753Z,5.40
2022-10-19T15:36:34.847Z,4.63
2022-10-19T15:39:18.344Z,4.63
2022-10-19T15:41:51.904Z,3.22
2022-10-19T15:44:42.705Z,3.97
2022-10-19T15:47:23.247Z,6.57
2022-10-19T15:49:52.473Z,6.13
2022-10-19T15:52:21.158Z,5.15
2022-10-19T15:54:49.845Z,4.22
2022-10-19T15:57:35.903Z,3.10
2022-10-19T16:00:13.505Z,6.93
2022-10-19T16:02:40.971Z,7.47
2022-10-19T16:05:08.649Z,5.97
2022-10-19T16:07:39.269Z,4.18
2022-10-19T16:10:08.126Z,4.90
2022-10-19T16:12:35.285Z,4.88
2022-10-19T16:15:02.581Z,7.40
2022-10-19T16:17:29.722Z,7.75
2022-10-19T16:19:58.584Z,10.85
2022-10-19T16:22:27.804Z,9.48
2022-10-19T16:24:56.520Z,7.00
2022-10-19T16:27:25.403Z,7.03
2022-10-19T16:29:55.944Z,4.72
2022-10-19T16:32:23.225Z,6.03
2022-10-19T16:34:50.302Z,10.73
2022-10-19T16:37:17.600Z,7.10
2022-10-19T16:39:44.781Z,6.90
2022-10-19T16:42:15.974Z,6.15
2022-10-19T16:44:45.521Z,6.40
2022-10-19T16:47:13.611Z,5.68
2022-10-19T16:49:40.823Z,3.97
2022-10-19T16:52:08.125Z,6.53
2022-10-19T16:54:35.269Z,5.22
2022-10-19T16:57:07.173Z,6.70
2022-10-19T16:59:36.960Z,5.63
2022-10-19T17:02:04.150Z,5.28
2022-10-19T17:04:31.423Z,10.05
2022-10-19T17:06:58.545Z,10.18
2022-10-19T17:09:42.599Z,21.00
2022-10-19T17:12:11.291Z,11.63
2022-10-19T17:14:40.832Z,8.68
2022-10-19T17:17:09.913Z,12.68
2022-10-19T17:19:39.743Z,7.35
2022-10-19T17:22:10.646Z,10.55
2022-10-19T17:24:39.442Z,12.68
2022-10-19T17:27:06.890Z,16.73
2022-10-19T17:29:34.773Z,12.27
2022-10-19T17:32:02.774Z,16.80
2022-10-19T17:34:29.944Z,16.00
2022-10-19T17:36:57.170Z,17.40
2022-10-19T17:39:29.135Z,15.20
2022-10-19T17:42:02.297Z,15.02
2022-10-19T17:44:30.812Z,14.20
2022-10-19T17:47:03.561Z,14.93
2022-10-19T17:49:31.473Z,16.30
2022-10-19T17:51:58.897Z,14.80
2022-10-19T17:54:26.809Z,13.00
2022-10-19T17:56:55.468Z,11.52
2022-10-19T17:59:34.953Z,13.85
2022-10-19T18:02:04.067Z,12.02
2022-10-19T18:04:31.325Z,14.20
2022-10-19T18:06:58.513Z,17.20
2022-10-19T18:09:25.708Z,16.48
2022-10-19T18:11:52.871Z,12.23
2022-10-19T18:14:20.732Z,10.05
2022-10-19T18:16:48.133Z,11.27
2022-10-19T18:19:16.798Z,12.45
2022-10-19T18:21:46.180Z,12.80
2022-10-19T18:24:20.340Z,32.55
2022-10-19T18:26:51.649Z,17.00
2022-10-19T18:29:22.678Z,12.32
2022-10-19T18:31:53.145Z,13.13
2022-10-19T18:34:24.416Z,10.88
2022-10-19T18:36:52.584Z,6.75
2022-10-19T18:39:20.991Z,10.73
2022-10-19T18:41:52.394Z,7.85
2022-10-19T18:44:25.161Z,13.52
2022-10-19T18:46:55.730Z,11.88
2022-10-19T18:49:24.333Z,8.90
2022-10-19T18:51:55.124Z,7.00
2022-10-19T18:54:29.001Z,10.38
2022-10-19T18:56:56.800Z,9.07
2022-10-19T19:01:55.599Z,8.57
2022-10-19T19:04:23.942Z,13.80
2022-10-19T19:06:52.635Z,11.60
2022-10-19T19:09:32.095Z,11.82
2022-10-19T19:12:02.416Z,8.40
2022-10-19T19:14:30.106Z,9.45
2022-10-19T19:16:58.793Z,12.05
2022-10-19T19:19:28.533Z,12.93
2022-10-19T19:22:05.093Z,15.82
2022-10-19T19:24:35.839Z,14.48
2022-10-19T19:27:07.553Z,14.80
2022-10-19T19:29:35.884Z,15.55
2022-10-19T19:32:04.598Z,15.73
2022-10-19T19:34:32.215Z,13.32
2022-10-19T19:36:59.879Z,13.38
2022-10-19T19:39:28.528Z,14.13
2022-10-19T19:41:58.360Z,13.52
2022-10-19T19:44:29.952Z,16.23
2022-10-19T19:46:58.818Z,13.55
2022-10-19T19:49:32.897Z,11.98
2022-10-19T19:52:01.104Z,16.35
2022-10-19T19:54:28.247Z,10.10
2022-10-19T19:56:55.838Z,11.35
2022-10-19T19:59:24.447Z,13.40
2022-10-19T20:01:53.223Z,9.30
2022-10-19T20:04:21.201Z,13.18
2022-10-19T20:06:48.477Z,11.70
2022-10-19T20:09:17.812Z,11.90
2022-10-19T20:11:46.770Z,9.20
2022-10-19T20:14:14.296Z,13.52
2022-10-19T20:16:44.354Z,11.90
2022-10-19T20:19:14.257Z,14.25
2022-10-19T20:21:48.907Z,15.52
2022-10-19T20:24:20.698Z,12.80
2022-10-19T20:26:51.357Z,10.38
2022-10-19T20:29:19.110Z,9.43
2022-10-19T20:31:46.365Z,10.88
2022-10-19T20:34:14.946Z,11.77
2022-10-19T20:36:42.797Z,10.32
2022-10-19T20:39:10.601Z,9.40
2022-10-19T20:41:41.470Z,12.93
2022-10-19T20:44:10.383Z,12.30
2022-10-19T20:46:37.783Z,12.60
2022-10-19T20:49:05.560Z,12.02
2022-10-19T20:51:36.622Z,12.57
2022-10-19T20:54:06.611Z,9.32
2022-10-19T20:56:36.349Z,10.30
2022-10-19T20:59:09.017Z,9.77
2022-10-19T21:01:38.419Z,9.85
2022-10-19T21:04:08.187Z,8.80
2022-10-19T21:06:39.673Z,14.45
2022-10-19T21:09:08.517Z,9.73
2022-10-19T21:11:38.565Z,10.25
2022-10-19T21:14:08.815Z,8.32
2022-10-19T21:16:37.998Z,9.10
2022-10-19T21:19:08.752Z,7.22
2022-10-19T21:21:41.332Z,11.60
2022-10-19T21:24:14.950Z,8.50
2022-10-19T21:26:42.546Z,11.20
2022-10-19T21:29:15.579Z,6.10
2022-10-19T21:31:48.635Z,8.38
2022-10-19T21:34:19.026Z,7.82
2022-10-19T21:36:47.023Z,6.38
2022-10-19T21:39:14.825Z,7.00
2022-10-19T21:41:42.065Z,6.32
2022-10-19T21:44:09.999Z,8.18
2022-10-19T21:46:37.197Z,9.75
2022-10-19T21:49:04.542Z,8.02
2022-10-19T21:51:54.095Z,8.73
2022-10-19T21:54:25.303Z,6.07
2022-10-19T21:56:53.596Z,6.32
2022-10-19T21:59:21.047Z,8.57
2022-10-19T22:01:48.557Z,8.27
2022-10-19T22:04:17.839Z,7.20
2022-10-19T22:06:45.887Z,6.30
2022-10-19T22:09:18.393Z,5.25
2022-10-19T22:11:47.088Z,7.72
2022-10-19T22:14:15.848Z,5.53
2022-10-19T22:16:43.549Z,7.18
2022-10-19T22:19:11.372Z,6.60
2022-10-19T22:24:13.870Z,6.53
2022-10-19T22:26:44.876Z,7.35
2022-10-19T22:29:12.094Z,6.35
2022-10-19T22:31:39.667Z,6.07
2022-10-19T22:34:10.784Z,5.88
2022-10-19T22:36:38.203Z,7.82
2022-10-19T22:39:06.940Z,6.60
2022-10-19T22:41:34.298Z,8.57
2022-10-19T22:44:01.578Z,7.43
2022-10-19T22:46:28.876Z,6.25
2022-10-19T22:48:56.246Z,7.72
2022-10-19T22:51:23.509Z,7.97
2022-10-19T22:53:50.907Z,5.78
2022-10-19T22:56:17.969Z,6.75
2022-10-19T22:58:45.458Z,8.20
2022-10-19T23:01:15.307Z,5.93
2022-10-19T23:03:42.703Z,8.88
2022-10-19T23:06:12.238Z,6.35
2022-10-19T23:08:39.934Z,6.43
2022-10-19T23:11:07.756Z,4.97
2022-10-19T23:13:35.249Z,6.28
2022-10-19T23:16:02.710Z,6.15
2022-10-19T23:18:32.618Z,8.48
2022-10-19T23:21:02.096Z,10.30
2022-10-19T23:23:31.138Z,4.97
2022-10-19T23:26:07.979Z,9.75
2022-10-19T23:28:36.963Z,5.55
2022-10-19T23:31:06.687Z,5.45
2022-10-19T23:33:34.875Z,4.97
2022-10-19T23:36:04.666Z,6.40
2022-10-19T23:38:32.153Z,4.57
2022-10-19T23:40:59.530Z,5.72
2022-10-19T23:43:26.907Z,5.82
2022-10-19T23:45:54.221Z,5.00
2022-10-19T23:48:21.477Z,3.97
2022-10-19T23:51:05.926Z,7.07
2022-10-19T23:53:37.081Z,8.13
2022-10-19T23:56:10.634Z,4.68
2022-10-19T23:58:37.842Z,5.82
